Terminal Aerodrome Forecast
Issued by NWS

Home | Current Version | Previous Version | Text Only | Print | Product List | Glossary On
Versions: 1 2 3 4 5 6 7 8 9 10 11 12 13 14 15 16 17 18 19 20 21 22 23 24 25
455
FTUS43 KDVN 281409 AAA
TAFCID
TAF AMD
KCID 281409Z 2814/2912 17007KT P6SM BKN007 BKN018 OVC023
      TEMPO 2814/2815 FEW009 BKN025
     FM281500 28009KT P6SM SCT025
      TEMPO 2815/2816 BKN025
     FM281800 19013KT P6SM VCTS SCT030CB BKN200
      TEMPO 2819/2821 VRB20G30KT 3SM TSRA BR BKN020CB
     FM290000 21008KT P6SM SCT030 BKN200
     FM290900 25006KT 6SM BR SCT020 BKN035=

USA.gov is the U.S. government's official web portal to all federal, state and local government web resources and services.